Time;durP1;ratioP1;P1;durP2;ratioP2;P2;SDS_P1;SDS_P2;PMS_P1;PMS_P2;Temp;Humidity;BMP_temperature;BMP_pressure;BME280_temperature;BME280_humidity;BME280_pressure;Samples;Min_cycle;Max_cycle;Signal;HPM_P1;HPM_P2
2023/08/08 00:01:03;;;;;;;12.07;11.00;;;;;;;;;;5032818;28;20919;-44
2023/08/08 00:03:30;;;;;;;12.37;10.00;;;;;;;;;;5033557;28;20440;-41
2023/08/08 00:05:58;;;;;;;11.23;10.07;;;;;;;;;;5033043;28;20535;-44
2023/08/08 00:08:25;;;;;;;12.23;11.10;;;;;;;;;;5023532;28;20444;-46
2023/08/08 00:10:53;;;;;;;12.57;10.70;;;;;;;;;;5032992;28;20948;-42
2023/08/08 00:13:22;;;;;;;12.80;10.97;;;;;;;;;;5033221;28;20435;-42
2023/08/08 00:15:49;;;;;;;12.70;11.53;;;;;;;;;;5033051;28;20499;-45
2023/08/08 00:18:17;;;;;;;15.37;13.67;;;;;;;;;;5033322;28;20428;-41
2023/08/08 00:20:45;;;;;;;15.60;12.93;;;;;;;;;;5016863;28;20469;-42
2023/08/08 00:23:12;;;;;;;12.10;11.00;;;;;;;;;;5013050;28;20492;-42
2023/08/08 00:25:40;;;;;;;13.93;11.93;;;;;;;;;;5013420;28;20484;-42
2023/08/08 00:28:07;;;;;;;15.27;12.43;;;;;;;;;;5013293;28;20512;-42
2023/08/08 00:30:36;;;;;;;14.50;12.60;;;;;;;;;;5034728;28;20555;-41
2023/08/08 00:33:04;;;;;;;12.37;11.27;;;;;;;;;;5040051;28;20444;-44
2023/08/08 00:35:32;;;;;;;13.10;11.93;;;;;;;;;;5040364;28;21319;-41
2023/08/08 00:37:59;;;;;;;12.10;11.30;;;;;;;;;;5045752;28;20828;-41
2023/08/08 00:40:27;;;;;;;11.73;10.70;;;;;;;;;;5044760;28;20463;-44
2023/08/08 00:42:54;;;;;;;19.23;12.03;;;;;;;;;;5044378;28;20981;-45
2023/08/08 00:45:22;;;;;;;12.90;11.80;;;;;;;;;;5037986;28;20547;-44
2023/08/08 00:47:51;;;;;;;11.60;10.57;;;;;;;;;;5041496;28;20953;-42
2023/08/08 00:50:19;;;;;;;12.63;10.43;;;;;;;;;;5049099;28;20893;-42
2023/08/08 00:52:46;;;;;;;13.47;11.40;;;;;;;;;;5040610;28;20432;-45
2023/08/08 00:55:15;;;;;;;12.00;11.10;;;;;;;;;;5040268;28;20452;-43
2023/08/08 00:57:42;;;;;;;13.20;10.90;;;;;;;;;;5025226;28;20485;-42
2023/08/08 01:00:11;;;;;;;11.17;10.30;;;;;;;;;;5026499;28;20519;-45
2023/08/08 01:02:38;;;;;;;19.97;11.90;;;;;;;;;;5012478;28;20495;-44
2023/08/08 01:05:08;;;;;;;13.27;10.90;;;;;;;;;;5012142;28;20793;-42
2023/08/08 01:07:39;;;;;;;18.20;10.97;;;;;;;;;;5012674;28;20503;-41
2023/08/08 01:10:09;;;;;;;16.73;11.47;;;;;;;;;;5012274;28;20552;-44
2023/08/08 01:12:39;;;;;;;12.70;11.40;;;;;;;;;;5012447;28;20461;-42
2023/08/08 01:15:08;;;;;;;16.80;12.30;;;;;;;;;;5013179;28;20457;-45
2023/08/08 01:17:36;;;;;;;12.13;10.80;;;;;;;;;;5000829;28;20476;-42
2023/08/08 01:20:04;;;;;;;13.20;11.90;;;;;;;;;;5012232;28;20464;-43
2023/08/08 01:22:38;;;;;;;14.60;11.93;;;;;;;;;;5012478;28;20473;-42
2023/08/08 01:25:08;;;;;;;12.10;10.93;;;;;;;;;;5000458;28;20480;-44
2023/08/08 01:27:36;;;;;;;15.40;11.63;;;;;;;;;;5012437;28;20437;-42
2023/08/08 01:30:04;;;;;;;12.27;11.20;;;;;;;;;;5012015;28;20460;-42
2023/08/08 01:32:32;;;;;;;16.00;11.73;;;;;;;;;;5012217;28;20529;-42
2023/08/08 01:34:59;;;;;;;13.33;12.03;;;;;;;;;;5012439;28;20872;-43
2023/08/08 01:37:30;;;;;;;11.30;10.47;;;;;;;;;;5012762;28;20441;-43
2023/08/08 01:39:59;;;;;;;12.40;11.30;;;;;;;;;;5012315;28;20500;-41
2023/08/08 01:42:29;;;;;;;13.50;10.77;;;;;;;;;;5012084;28;20910;-42
2023/08/08 01:44:56;;;;;;;16.90;10.43;;;;;;;;;;5012848;28;20483;-42
2023/08/08 01:47:24;;;;;;;11.73;10.50;;;;;;;;;;5012403;28;20433;-42
2023/08/08 01:49:52;;;;;;;14.97;11.47;;;;;;;;;;5011753;28;20456;-41
2023/08/08 01:52:19;;;;;;;13.87;11.20;;;;;;;;;;5012539;28;20511;-41
2023/08/08 01:54:47;;;;;;;12.40;11.37;;;;;;;;;;5011141;28;20468;-42
2023/08/08 01:57:14;;;;;;;12.33;11.10;;;;;;;;;;5012222;28;20479;-41
2023/08/08 01:59:46;;;;;;;13.63;12.47;;;;;;;;;;5011888;28;20460;-41
2023/08/08 02:02:13;;;;;;;12.30;11.23;;;;;;;;;;5012375;28;20468;-41
2023/08/08 02:04:41;;;;;;;14.17;12.70;;;;;;;;;;5012853;28;20429;-41
2023/08/08 02:07:08;;;;;;;12.40;11.17;;;;;;;;;;5012439;28;20495;-42
2023/08/08 02:09:36;;;;;;;11.87;10.57;;;;;;;;;;5012359;28;20457;-41
2023/08/08 02:12:04;;;;;;;14.00;10.77;;;;;;;;;;5012474;28;21034;-41
2023/08/08 02:14:32;;;;;;;14.53;11.27;;;;;;;;;;5011852;28;20445;-42
2023/08/08 02:17:01;;;;;;;13.67;11.50;;;;;;;;;;5012172;28;20465;-42
2023/08/08 02:19:29;;;;;;;15.23;10.90;;;;;;;;;;5011958;28;20460;-41
2023/08/08 02:21:57;;;;;;;15.57;11.70;;;;;;;;;;5012088;28;20490;-43
2023/08/08 02:24:24;;;;;;;19.83;12.23;;;;;;;;;;5012663;28;20440;-41
2023/08/08 02:26:52;;;;;;;14.73;11.20;;;;;;;;;;5012104;28;20456;-41
2023/08/08 02:29:19;;;;;;;12.57;11.30;;;;;;;;;;5012900;28;20456;-43
2023/08/08 02:31:47;;;;;;;14.73;11.07;;;;;;;;;;5015278;28;20539;-43
2023/08/08 02:34:16;;;;;;;12.00;10.97;;;;;;;;;;5015607;28;20437;-41
2023/08/08 02:36:44;;;;;;;19.17;10.60;;;;;;;;;;5016052;28;20879;-41
2023/08/08 02:39:11;;;;;;;12.80;11.50;;;;;;;;;;5015691;28;20476;-42
2023/08/08 02:41:39;;;;;;;11.17;10.17;;;;;;;;;;5015460;28;20445;-42
2023/08/08 02:44:07;;;;;;;11.80;10.70;;;;;;;;;;5016073;28;20481;-41
2023/08/08 02:46:34;;;;;;;13.43;12.03;;;;;;;;;;5015309;28;20460;-41
2023/08/08 02:49:02;;;;;;;14.33;12.30;;;;;;;;;;5014898;28;20445;-46
2023/08/08 02:51:31;;;;;;;12.20;10.77;;;;;;;;;;5015332;28;20444;-42
2023/08/08 02:53:58;;;;;;;16.07;11.13;;;;;;;;;;5016378;28;20464;-44
2023/08/08 02:56:26;;;;;;;12.07;10.90;;;;;;;;;;5015943;28;20485;-43
2023/08/08 02:58:53;;;;;;;13.30;10.57;;;;;;;;;;5015048;28;20471;-41
2023/08/08 03:01:21;;;;;;;14.87;10.80;;;;;;;;;;5015426;28;20480;-41
2023/08/08 03:03:49;;;;;;;11.07;10.10;;;;;;;;;;5015871;28;20476;-41
2023/08/08 03:06:16;;;;;;;11.47;10.50;;;;;;;;;;5014017;28;20457;-41
2023/08/08 03:08:45;;;;;;;13.27;11.27;;;;;;;;;;5014613;28;20474;-44
2023/08/08 03:11:13;;;;;;;13.13;11.60;;;;;;;;;;5015396;28;20445;-41
2023/08/08 03:13:41;;;;;;;12.17;10.90;;;;;;;;;;5015497;28;20533;-41
2023/08/08 03:16:08;;;;;;;13.93;10.70;;;;;;;;;;5014373;28;20459;-44
2023/08/08 03:18:36;;;;;;;12.83;11.00;;;;;;;;;;5015675;28;20520;-41
2023/08/08 03:21:03;;;;;;;16.60;11.37;;;;;;;;;;5014912;28;20457;-41
2023/08/08 03:23:31;;;;;;;12.83;11.37;;;;;;;;;;5014071;28;21344;-42
2023/08/08 03:26:00;;;;;;;16.60;12.63;;;;;;;;;;5015865;28;20453;-43
2023/08/08 03:28:27;;;;;;;22.73;12.83;;;;;;;;;;5013316;28;20441;-43
2023/08/08 03:30:55;;;;;;;14.33;10.57;;;;;;;;;;5014810;28;20544;-43
2023/08/08 03:33:22;;;;;;;12.73;11.60;;;;;;;;;;5015012;28;20441;-41
2023/08/08 03:35:50;;;;;;;12.00;10.80;;;;;;;;;;5014720;28;20466;-42
2023/08/08 03:38:17;;;;;;;13.73;12.70;;;;;;;;;;5015199;28;20437;-41
2023/08/08 03:40:45;;;;;;;14.47;13.47;;;;;;;;;;5014578;28;20461;-41
2023/08/08 03:43:14;;;;;;;12.53;11.47;;;;;;;;;;5014708;28;20507;-41
2023/08/08 03:45:41;;;;;;;13.73;12.77;;;;;;;;;;5015368;28;20457;-42
2023/08/08 03:48:09;;;;;;;13.77;12.97;;;;;;;;;;5014186;28;20441;-42
2023/08/08 03:50:36;;;;;;;16.67;13.50;;;;;;;;;;5014332;28;20934;-45
2023/08/08 03:53:04;;;;;;;14.23;12.83;;;;;;;;;;5013873;28;20475;-43
2023/08/08 03:55:32;;;;;;;16.60;13.53;;;;;;;;;;5014236;28;20464;-44
2023/08/08 03:58:00;;;;;;;17.20;14.20;;;;;;;;;;5014801;28;20437;-43
2023/08/08 04:00:29;;;;;;;16.70;15.47;;;;;;;;;;5013883;28;20497;-44
2023/08/08 04:02:56;;;;;;;13.10;11.87;;;;;;;;;;5013539;28;20497;-42
2023/08/08 04:05:23;;;;;;;13.20;11.93;;;;;;;;;;5014080;28;20460;-41
2023/08/08 04:07:51;;;;;;;20.73;13.27;;;;;;;;;;5014480;28;20437;-41
2023/08/08 04:10:18;;;;;;;15.93;14.43;;;;;;;;;;5014240;28;21020;-45
2023/08/08 04:12:46;;;;;;;15.83;14.50;;;;;;;;;;5014288;28;20520;-42
2023/08/08 04:15:13;;;;;;;16.47;14.80;;;;;;;;;;5013579;28;20441;-47
2023/08/08 04:17:42;;;;;;;14.17;13.27;;;;;;;;;;5008040;28;20967;-43
2023/08/08 04:20:11;;;;;;;15.03;13.93;;;;;;;;;;5013954;28;21012;-45
2023/08/08 04:22:38;;;;;;;15.80;14.60;;;;;;;;;;5013919;28;20451;-42
2023/08/08 04:25:07;;;;;;;13.20;12.20;;;;;;;;;;5013626;28;20515;-42
2023/08/08 04:27:35;;;;;;;18.73;12.90;;;;;;;;;;5013485;28;20437;-42
2023/08/08 04:30:04;;;;;;;16.43;15.03;;;;;;;;;;5012288;28;20468;-43
2023/08/08 04:32:31;;;;;;;15.17;12.00;;;;;;;;;;5013877;28;20496;-43
2023/08/08 04:35:00;;;;;;;14.03;12.80;;;;;;;;;;5014216;28;20425;-42
2023/08/08 04:37:28;;;;;;;11.90;11.07;;;;;;;;;;5014088;28;20433;-42
2023/08/08 04:39:55;;;;;;;12.87;11.77;;;;;;;;;;5014805;28;20488;-44
2023/08/08 04:42:23;;;;;;;11.70;10.70;;;;;;;;;;5014340;28;20531;-44
2023/08/08 04:44:50;;;;;;;16.67;14.93;;;;;;;;;;5014627;28;20871;-45
2023/08/08 04:47:18;;;;;;;14.00;13.07;;;;;;;;;;5014668;28;20469;-43
2023/08/08 04:49:45;;;;;;;13.93;12.93;;;;;;;;;;5014149;28;20512;-45
2023/08/08 04:52:14;;;;;;;12.67;11.80;;;;;;;;;;5013771;28;21027;-45
2023/08/08 04:54:42;;;;;;;13.73;12.40;;;;;;;;;;5014585;28;20461;-42
2023/08/08 04:57:09;;;;;;;12.40;11.50;;;;;;;;;;5013992;28;20432;-43
2023/08/08 04:59:37;;;;;;;12.23;11.23;;;;;;;;;;5013878;28;20471;-45
2023/08/08 05:02:04;;;;;;;10.73;10.10;;;;;;;;;;5014188;28;20495;-43
2023/08/08 05:04:32;;;;;;;12.67;11.67;;;;;;;;;;5014436;28;20534;-45
2023/08/08 05:07:00;;;;;;;13.13;10.13;;;;;;;;;;5014470;28;20456;-45
2023/08/08 05:09:28;;;;;;;15.13;11.03;;;;;;;;;;5013495;28;20547;-42
2023/08/08 05:11:56;;;;;;;10.03;9.33;;;;;;;;;;5014041;28;20464;-42
2023/08/08 05:14:24;;;;;;;10.63;9.77;;;;;;;;;;5014925;28;20429;-45
2023/08/08 05:16:52;;;;;;;11.93;10.93;;;;;;;;;;5014339;28;20449;-41
2023/08/08 05:19:19;;;;;;;13.83;9.40;;;;;;;;;;5014219;28;20516;-42
2023/08/08 05:21:47;;;;;;;12.70;10.80;;;;;;;;;;5013623;28;20970;-42
2023/08/08 05:24:16;;;;;;;10.47;8.80;;;;;;;;;;5013596;28;21016;-42
2023/08/08 05:26:45;;;;;;;11.90;9.03;;;;;;;;;;5014585;28;20463;-44
2023/08/08 05:29:13;;;;;;;9.77;8.80;;;;;;;;;;5013956;28;20874;-42
2023/08/08 05:31:40;;;;;;;9.93;8.93;;;;;;;;;;5013068;28;21082;-41
2023/08/08 05:34:08;;;;;;;9.37;8.47;;;;;;;;;;5011839;28;20476;-41
2023/08/08 05:36:35;;;;;;;18.20;7.60;;;;;;;;;;5011650;28;20488;-42
2023/08/08 05:39:03;;;;;;;11.80;7.10;;;;;;;;;;5011703;28;20468;-44
2023/08/08 05:41:31;;;;;;;8.60;7.73;;;;;;;;;;5011739;28;20491;-42
2023/08/08 05:43:59;;;;;;;8.87;8.10;;;;;;;;;;5011840;28;20496;-42
2023/08/08 05:46:27;;;;;;;8.43;7.57;;;;;;;;;;5011546;28;20456;-41
2023/08/08 05:48:54;;;;;;;8.30;7.20;;;;;;;;;;5011355;28;20447;-43
2023/08/08 05:51:22;;;;;;;12.47;8.60;;;;;;;;;;5011823;28;20475;-42
2023/08/08 05:53:50;;;;;;;11.93;8.97;;;;;;;;;;5011701;28;20432;-42
2023/08/08 05:56:17;;;;;;;10.23;7.43;;;;;;;;;;5011632;28;20452;-41
2023/08/08 05:58:45;;;;;;;11.17;8.37;;;;;;;;;;5011848;28;20483;-42
2023/08/08 06:01:13;;;;;;;9.63;8.67;;;;;;;;;;5011272;28;20531;-42
2023/08/08 06:03:42;;;;;;;12.07;8.80;;;;;;;;;;5011974;28;20437;-41
2023/08/08 06:06:10;;;;;;;9.50;8.70;;;;;;;;;;5015384;28;20484;-45
2023/08/08 06:08:37;;;;;;;12.37;9.27;;;;;;;;;;5015595;28;20448;-41
2023/08/08 06:11:05;;;;;;;10.77;9.90;;;;;;;;;;5015091;28;20484;-41
2023/08/08 06:13:32;;;;;;;10.70;9.27;;;;;;;;;;5015577;28;20433;-41
2023/08/08 06:16:01;;;;;;;13.90;10.03;;;;;;;;;;5015290;28;20444;-41
2023/08/08 06:18:30;;;;;;;12.83;10.03;;;;;;;;;;5015639;28;20491;-41
2023/08/08 06:20:57;;;;;;;10.03;8.93;;;;;;;;;;5015027;28;20487;-41
2023/08/08 06:23:25;;;;;;;9.33;8.60;;;;;;;;;;5015075;28;20475;-41
2023/08/08 06:25:52;;;;;;;9.63;8.73;;;;;;;;;;5015230;28;21000;-41
2023/08/08 06:28:20;;;;;;;10.27;9.03;;;;;;;;;;5015264;28;20970;-41
2023/08/08 06:30:47;;;;;;;9.73;9.00;;;;;;;;;;5014609;28;20522;-40
2023/08/08 06:33:15;;;;;;;9.33;8.40;;;;;;;;;;5014949;28;20528;-42
2023/08/08 06:35:45;;;;;;;8.80;8.30;;;;;;;;;;5015202;28;20452;-41
2023/08/08 06:38:12;;;;;;;9.90;9.17;;;;;;;;;;5015631;28;21099;-41
2023/08/08 06:40:40;;;;;;;9.70;9.00;;;;;;;;;;5014594;28;20547;-41
2023/08/08 06:43:08;;;;;;;9.93;9.13;;;;;;;;;;5014618;28;20985;-41
2023/08/08 06:45:36;;;;;;;11.73;8.60;;;;;;;;;;5014834;28;20487;-42
2023/08/08 06:48:03;;;;;;;9.07;8.30;;;;;;;;;;5014996;28;20444;-41
2023/08/08 06:50:31;;;;;;;12.20;7.33;;;;;;;;;;5014369;28;20543;-42
2023/08/08 06:53:00;;;;;;;7.77;7.00;;;;;;;;;;5014547;28;20946;-41
2023/08/08 06:55:27;;;;;;;7.47;6.73;;;;;;;;;;5014503;28;20448;-42
2023/08/08 06:57:55;;;;;;;7.10;6.40;;;;;;;;;;5014668;28;20436;-44
2023/08/08 07:00:22;;;;;;;10.77;7.20;;;;;;;;;;5014375;28;20514;-41
2023/08/08 07:02:50;;;;;;;8.30;6.40;;;;;;;;;;5014318;28;20433;-42
2023/08/08 07:05:18;;;;;;;6.60;6.10;;;;;;;;;;5014465;28;20476;-41
2023/08/08 07:07:46;;;;;;;7.20;5.57;;;;;;;;;;5014380;28;20433;-41
2023/08/08 07:10:15;;;;;;;6.83;6.23;;;;;;;;;;5014015;28;20522;-41
2023/08/08 07:12:43;;;;;;;9.90;7.20;;;;;;;;;;5014600;28;20520;-41
2023/08/08 07:15:11;;;;;;;6.07;5.57;;;;;;;;;;5013875;28;20452;-41
2023/08/08 07:17:39;;;;;;;7.37;6.60;;;;;;;;;;5013992;28;20985;-41
2023/08/08 07:20:07;;;;;;;11.20;7.23;;;;;;;;;;5013848;28;20464;-41
2023/08/08 07:22:35;;;;;;;9.97;6.93;;;;;;;;;;5013896;28;20506;-41
2023/08/08 07:25:04;;;;;;;9.07;7.20;;;;;;;;;;5013912;28;20558;-41
2023/08/08 07:27:33;;;;;;;7.47;6.80;;;;;;;;;;5014252;28;20436;-41
2023/08/08 07:30:02;;;;;;;8.57;6.50;;;;;;;;;;5013608;28;20510;-43
2023/08/08 07:32:30;;;;;;;8.30;6.80;;;;;;;;;;5013816;28;20443;-41
2023/08/08 07:35:01;;;;;;;7.53;6.83;;;;;;;;;;5013994;28;21081;-43
2023/08/08 07:37:28;;;;;;;9.27;7.47;;;;;;;;;;5013786;28;20526;-43
2023/08/08 07:39:56;;;;;;;11.23;7.77;;;;;;;;;;5013713;28;20558;-41
2023/08/08 07:42:23;;;;;;;19.73;8.23;;;;;;;;;;5013849;28;20437;-41
2023/08/08 07:44:54;;;;;;;7.13;6.47;;;;;;;;;;5013991;28;20476;-41
2023/08/08 07:47:22;;;;;;;7.40;6.70;;;;;;;;;;5013845;28;20432;-41
2023/08/08 07:49:49;;;;;;;7.13;6.50;;;;;;;;;;5013528;28;20511;-41
2023/08/08 07:52:17;;;;;;;7.20;6.50;;;;;;;;;;5013689;28;20464;-42
2023/08/08 07:54:47;;;;;;;10.40;7.30;;;;;;;;;;5013785;28;20436;-41
2023/08/08 07:57:15;;;;;;;10.60;8.17;;;;;;;;;;5013462;28;20919;-41
2023/08/08 07:59:42;;;;;;;11.73;7.10;;;;;;;;;;5013092;28;20473;-41
2023/08/08 08:02:11;;;;;;;8.00;7.20;;;;;;;;;;5013266;28;20443;-41
2023/08/08 08:04:39;;;;;;;6.93;6.33;;;;;;;;;;5013418;28;20436;-41
2023/08/08 08:07:07;;;;;;;11.17;7.20;;;;;;;;;;5013402;28;20503;-43
2023/08/08 08:09:35;;;;;;;7.10;6.40;;;;;;;;;;5013024;28;20464;-41
2023/08/08 08:12:03;;;;;;;8.70;7.10;;;;;;;;;;5013634;28;20424;-41
2023/08/08 08:14:31;;;;;;;6.47;5.93;;;;;;;;;;5013157;28;20946;-41
2023/08/08 08:16:58;;;;;;;6.20;5.80;;;;;;;;;;5012962;28;20492;-41
2023/08/08 08:19:28;;;;;;;6.90;6.40;;;;;;;;;;5012840;28;20456;-41
2023/08/08 08:21:55;;;;;;;7.57;6.70;;;;;;;;;;5012970;28;20510;-41
2023/08/08 08:24:23;;;;;;;7.53;6.93;;;;;;;;;;5013223;28;20822;-45
2023/08/08 08:26:50;;;;;;;8.57;7.10;;;;;;;;;;5012555;28;20994;-41
2023/08/08 08:29:18;;;;;;;6.97;6.27;;;;;;;;;;5012577;28;20994;-41
2023/08/08 08:31:46;;;;;;;7.30;6.70;;;;;;;;;;5012766;28;20528;-41
2023/08/08 08:34:14;;;;;;;7.60;6.87;;;;;;;;;;5013019;28;20491;-43
2023/08/08 08:36:43;;;;;;;7.20;6.30;;;;;;;;;;5012951;28;20503;-42
2023/08/08 08:39:11;;;;;;;6.70;6.10;;;;;;;;;;5012499;28;20966;-41
2023/08/08 08:41:38;;;;;;;6.77;6.27;;;;;;;;;;5012567;28;20520;-42
2023/08/08 08:44:06;;;;;;;7.57;6.87;;;;;;;;;;5012610;28;20440;-44
2023/08/08 08:46:36;;;;;;;7.50;6.73;;;;;;;;;;5012444;28;20566;-41
2023/08/08 08:49:08;;;;;;;6.90;6.00;;;;;;;;;;5012087;28;20433;-41
2023/08/08 08:51:36;;;;;;;7.60;7.10;;;;;;;;;;5012513;28;20831;-41
2023/08/08 08:54:06;;;;;;;8.73;6.60;;;;;;;;;;5012580;28;20965;-41
2023/08/08 08:56:33;;;;;;;6.97;6.47;;;;;;;;;;5012587;28;20452;-41
2023/08/08 08:59:01;;;;;;;7.10;6.43;;;;;;;;;;5012255;28;20460;-41
2023/08/08 09:01:29;;;;;;;10.27;5.90;;;;;;;;;;5012217;28;20498;-41
2023/08/08 09:03:57;;;;;;;8.63;6.37;;;;;;;;;;5012272;28;20432;-43
2023/08/08 09:06:25;;;;;;;7.20;5.93;;;;;;;;;;5012261;28;20564;-41
2023/08/08 09:08:53;;;;;;;5.73;5.37;;;;;;;;;;5012198;28;20432;-41
2023/08/08 09:11:35;;;;;;;8.20;5.47;;;;;;;;;;5012027;28;20459;-42
2023/08/08 09:14:02;;;;;;;10.60;6.00;;;;;;;;;;5012200;28;20472;-41
2023/08/08 09:16:31;;;;;;;6.50;5.40;;;;;;;;;;5012391;28;20480;-41
2023/08/08 09:18:58;;;;;;;7.37;6.40;;;;;;;;;;5011680;28;20447;-41
2023/08/08 09:21:26;;;;;;;11.57;6.20;;;;;;;;;;5011889;28;20429;-41
2023/08/08 09:23:53;;;;;;;6.93;5.70;;;;;;;;;;5017016;28;20764;-41
2023/08/08 09:26:21;;;;;;;6.70;6.20;;;;;;;;;;5024165;28;20523;-43
2023/08/08 09:28:51;;;;;;;7.00;6.30;;;;;;;;;;5023354;28;20432;-43
2023/08/08 09:31:18;;;;;;;6.93;6.33;;;;;;;;;;5022891;28;20456;-43
2023/08/08 09:33:48;;;;;;;10.30;6.13;;;;;;;;;;5022975;28;20436;-47
2023/08/08 09:36:16;;;;;;;7.40;5.70;;;;;;;;;;5019995;28;20463;-48
2023/08/08 09:38:45;;;;;;;7.00;6.30;;;;;;;;;;5020583;28;20441;-42
2023/08/08 09:41:14;;;;;;;6.10;5.60;;;;;;;;;;5020023;28;20451;-42
2023/08/08 09:43:43;;;;;;;4.47;4.00;;;;;;;;;;5021178;28;20498;-43
2023/08/08 09:46:13;;;;;;;9.33;4.53;;;;;;;;;;5019101;28;20504;-50
2023/08/08 09:48:41;;;;;;;4.90;4.53;;;;;;;;;;5020465;28;20475;-46
2023/08/08 09:51:09;;;;;;;11.40;5.80;;;;;;;;;;5019196;28;20467;-43
2023/08/08 09:53:36;;;;;;;5.30;4.80;;;;;;;;;;5019989;28;20443;-49
2023/08/08 09:56:04;;;;;;;5.07;4.40;;;;;;;;;;5018872;28;20449;-44
2023/08/08 09:58:32;;;;;;;7.13;4.43;;;;;;;;;;5019606;28;20428;-43
2023/08/08 10:01:00;;;;;;;5.10;3.87;;;;;;;;;;5019915;28;21092;-44
2023/08/08 10:03:29;;;;;;;6.90;3.60;;;;;;;;;;5022157;28;20481;-42
2023/08/08 10:05:57;;;;;;;6.77;4.43;;;;;;;;;;5020062;28;20460;-44
2023/08/08 10:08:24;;;;;;;7.23;4.13;;;;;;;;;;5020670;28;20459;-47
2023/08/08 10:10:52;;;;;;;4.37;3.97;;;;;;;;;;5020802;28;21187;-42
2023/08/08 10:13:20;;;;;;;5.13;4.27;;;;;;;;;;5021745;28;20436;-43
2023/08/08 10:15:48;;;;;;;4.63;4.23;;;;;;;;;;5020113;28;20463;-43
2023/08/08 10:18:16;;;;;;;4.60;4.27;;;;;;;;;;5020206;28;20429;-44
2023/08/08 10:20:47;;;;;;;5.07;4.60;;;;;;;;;;5019528;28;20495;-43
2023/08/08 10:23:15;;;;;;;4.67;4.47;;;;;;;;;;5022073;28;20444;-45
2023/08/08 10:25:45;;;;;;;4.90;4.50;;;;;;;;;;5020515;28;20452;-44
2023/08/08 10:28:14;;;;;;;6.27;5.43;;;;;;;;;;5020796;28;20476;-45
2023/08/08 10:30:57;;;;;;;5.70;4.87;;;;;;;;;;5020204;28;20461;-42
2023/08/08 10:33:25;;;;;;;6.50;6.00;;;;;;;;;;5012836;28;20448;-43
2023/08/08 10:36:01;;;;;;;8.77;8.27;;;;;;;;;;5013302;28;20979;-41
2023/08/08 10:38:40;;;;;;;9.57;8.90;;;;;;;;;;5013417;28;20436;-42
2023/08/08 10:41:09;;;;;;;9.80;9.20;;;;;;;;;;5012924;28;20885;-41
2023/08/08 10:43:37;;;;;;;10.53;9.70;;;;;;;;;;5013527;28;21096;-41
2023/08/08 10:46:05;;;;;;;8.07;7.50;;;;;;;;;;5013168;28;20866;-41
2023/08/08 10:48:50;;;;;;;9.37;8.87;;;;;;;;;;5013539;28;20444;-42
2023/08/08 10:51:19;;;;;;;8.80;8.40;;;;;;;;;;5015519;28;20447;-43
2023/08/08 10:53:47;;;;;;;8.70;8.00;;;;;;;;;;5017192;28;20514;-42
2023/08/08 10:56:14;;;;;;;8.67;7.97;;;;;;;;;;5016377;28;20456;-41
2023/08/08 10:58:43;;;;;;;7.13;6.43;;;;;;;;;;5016308;28;20429;-47
2023/08/08 11:01:12;;;;;;;8.60;7.50;;;;;;;;;;5016040;28;20551;-43
2023/08/08 11:03:40;;;;;;;8.63;7.93;;;;;;;;;;5016394;28;20515;-43
2023/08/08 11:06:08;;;;;;;7.10;6.57;;;;;;;;;;5017007;28;20463;-42
2023/08/08 11:08:38;;;;;;;13.87;9.20;;;;;;;;;;5016893;28;20473;-42
2023/08/08 11:11:06;;;;;;;7.37;6.97;;;;;;;;;;5016121;28;20488;-41
2023/08/08 11:13:33;;;;;;;9.27;8.77;;;;;;;;;;5016491;28;20472;-45
2023/08/08 11:16:02;;;;;;;9.20;8.80;;;;;;;;;;5016320;28;20457;-42
2023/08/08 11:18:30;;;;;;;9.77;9.33;;;;;;;;;;5015779;28;20543;-41
2023/08/08 11:20:58;;;;;;;7.43;6.80;;;;;;;;;;5015500;28;21014;-43
2023/08/08 11:23:47;;;;;;;9.90;7.67;;;;;;;;;;5015989;28;20973;-44
2023/08/08 11:26:17;;;;;;;7.33;6.83;;;;;;;;;;5015800;28;20457;-44
2023/08/08 11:28:49;;;;;;;7.47;6.97;;;;;;;;;;5015149;28;20534;-43
2023/08/08 11:31:17;;;;;;;7.97;7.47;;;;;;;;;;5014980;28;20499;-45
2023/08/08 11:33:44;;;;;;;9.53;8.60;;;;;;;;;;5015642;28;20943;-43
2023/08/08 11:36:14;;;;;;;8.03;7.43;;;;;;;;;;5015513;28;20449;-42
2023/08/08 11:38:43;;;;;;;15.37;8.73;;;;;;;;;;5014955;28;20776;-42
2023/08/08 11:41:12;;;;;;;8.53;7.70;;;;;;;;;;5014695;28;20477;-42
2023/08/08 11:43:40;;;;;;;8.80;8.00;;;;;;;;;;5015406;28;20433;-42
2023/08/08 11:46:09;;;;;;;10.10;8.73;;;;;;;;;;5015329;28;20511;-42
2023/08/08 11:48:38;;;;;;;10.30;9.37;;;;;;;;;;5015777;28;20523;-42
2023/08/08 11:51:05;;;;;;;8.87;8.37;;;;;;;;;;5015483;28;20467;-43
2023/08/08 11:53:33;;;;;;;15.00;8.40;;;;;;;;;;5015676;28;20433;-42
2023/08/08 11:56:03;;;;;;;14.40;9.10;;;;;;;;;;5015129;28;20457;-44
2023/08/08 11:58:32;;;;;;;14.53;8.37;;;;;;;;;;5015397;28;20437;-43
2023/08/08 12:00:59;;;;;;;9.67;8.90;;;;;;;;;;5013988;28;20460;-42
2023/08/08 12:03:27;;;;;;;9.90;9.00;;;;;;;;;;5013518;28;20437;-41
2023/08/08 12:05:55;;;;;;;9.20;8.60;;;;;;;;;;5013374;28;20471;-44
2023/08/08 12:08:23;;;;;;;10.17;8.87;;;;;;;;;;5013495;28;20571;-40
2023/08/08 12:10:54;;;;;;;10.63;9.73;;;;;;;;;;5013371;28;21220;-41
2023/08/08 12:13:22;;;;;;;10.93;10.13;;;;;;;;;;5013216;28;20938;-44
2023/08/08 12:15:51;;;;;;;17.17;15.27;;;;;;;;;;5013182;28;20503;-41
2023/08/08 12:18:20;;;;;;;16.23;14.67;;;;;;;;;;5013231;28;20896;-41
2023/08/08 12:20:48;;;;;;;15.10;13.80;;;;;;;;;;5012846;28;20893;-42
2023/08/08 12:23:16;;;;;;;15.67;14.30;;;;;;;;;;5012909;28;21009;-41
2023/08/08 12:25:43;;;;;;;15.00;13.80;;;;;;;;;;5013037;28;20511;-42
2023/08/08 12:28:11;;;;;;;13.83;11.53;;;;;;;;;;5013163;28;20539;-41
2023/08/08 12:30:38;;;;;;;13.40;12.60;;;;;;;;;;5012733;28;20492;-43
2023/08/08 12:33:07;;;;;;;13.07;12.10;;;;;;;;;;5012994;28;20437;-44
2023/08/08 12:35:35;;;;;;;13.10;11.87;;;;;;;;;;5012873;28;20512;-45
2023/08/08 12:38:03;;;;;;;11.57;10.83;;;;;;;;;;5013085;28;20429;-40
2023/08/08 12:40:30;;;;;;;12.30;11.40;;;;;;;;;;5012569;28;20559;-43
2023/08/08 12:42:58;;;;;;;11.17;10.27;;;;;;;;;;5012727;28;20432;-41
2023/08/08 12:45:26;;;;;;;10.47;9.90;;;;;;;;;;5012968;28;21093;-41
2023/08/08 12:47:53;;;;;;;14.27;11.17;;;;;;;;;;5012515;28;20508;-43
2023/08/08 12:50:23;;;;;;;12.13;11.00;;;;;;;;;;5012168;28;20464;-43
2023/08/08 12:52:50;;;;;;;11.73;10.63;;;;;;;;;;5012530;28;20433;-42
2023/08/08 12:55:19;;;;;;;10.90;9.70;;;;;;;;;;5012525;28;20468;-43
2023/08/08 12:57:47;;;;;;;11.43;10.60;;;;;;;;;;5012573;28;20433;-43
2023/08/08 13:00:15;;;;;;;13.10;11.80;;;;;;;;;;5012013;28;20480;-41
2023/08/08 13:02:42;;;;;;;12.27;11.30;;;;;;;;;;5012617;28;20467;-41
2023/08/08 13:05:10;;;;;;;10.93;10.20;;;;;;;;;;5012159;28;20464;-42
2023/08/08 13:07:39;;;;;;;11.47;10.70;;;;;;;;;;5012356;28;20461;-41
2023/08/08 13:10:07;;;;;;;11.43;10.73;;;;;;;;;;5011982;28;20514;-42
2023/08/08 13:12:35;;;;;;;11.63;10.73;;;;;;;;;;5012392;28;20795;-41
2023/08/08 13:15:03;;;;;;;10.40;9.60;;;;;;;;;;5011256;28;20433;-42
2023/08/08 13:17:32;;;;;;;11.00;10.33;;;;;;;;;;5012277;28;20459;-41
2023/08/08 13:20:00;;;;;;;10.30;9.50;;;;;;;;;;5011680;28;20467;-42
2023/08/08 13:22:28;;;;;;;16.77;10.20;;;;;;;;;;5012036;28;20455;-42
2023/08/08 13:24:56;;;;;;;7.60;7.10;;;;;;;;;;5012061;28;20502;-42
2023/08/08 13:27:24;;;;;;;9.33;8.73;;;;;;;;;;5012155;28;20440;-42
2023/08/08 13:29:52;;;;;;;9.33;8.60;;;;;;;;;;5011738;28;20460;-43
2023/08/08 13:32:19;;;;;;;10.20;9.40;;;;;;;;;;5011747;28;20440;-42
2023/08/08 13:34:47;;;;;;;9.87;8.80;;;;;;;;;;5012031;28;20531;-42
2023/08/08 13:37:15;;;;;;;9.37;8.73;;;;;;;;;;5012187;28;20852;-41
2023/08/08 13:39:43;;;;;;;10.07;8.87;;;;;;;;;;5011546;28;20472;-43
2023/08/08 13:42:12;;;;;;;14.03;10.20;;;;;;;;;;5011988;28;20437;-42
2023/08/08 13:44:39;;;;;;;9.70;8.93;;;;;;;;;;5011841;28;20436;-41
2023/08/08 13:47:06;;;;;;;10.83;9.90;;;;;;;;;;5011694;28;20484;-44
2023/08/08 13:49:35;;;;;;;10.37;9.40;;;;;;;;;;5011329;28;20551;-42
2023/08/08 13:52:03;;;;;;;10.63;9.60;;;;;;;;;;5011998;28;20440;-42
2023/08/08 13:54:31;;;;;;;9.53;8.83;;;;;;;;;;5011616;28;20439;-42
2023/08/08 13:56:58;;;;;;;11.20;10.20;;;;;;;;;;5012263;28;20453;-41
2023/08/08 13:59:27;;;;;;;10.97;9.40;;;;;;;;;;5011541;28;20467;-43
2023/08/08 14:01:55;;;;;;;9.53;8.70;;;;;;;;;;5011823;28;20483;-41
2023/08/08 14:04:23;;;;;;;8.90;8.30;;;;;;;;;;5011800;28;20521;-42
2023/08/08 14:06:51;;;;;;;9.93;8.50;;;;;;;;;;5011513;28;20453;-41
2023/08/08 14:09:18;;;;;;;7.97;7.37;;;;;;;;;;5011126;28;20559;-44
2023/08/08 14:11:46;;;;;;;9.07;8.37;;;;;;;;;;5011543;28;20449;-41
2023/08/08 14:14:14;;;;;;;9.17;8.67;;;;;;;;;;5011715;28;20440;-41
2023/08/08 14:16:43;;;;;;;10.03;9.17;;;;;;;;;;5011489;28;20452;-41
2023/08/08 14:19:12;;;;;;;9.73;7.50;;;;;;;;;;5010925;28;20456;-42
2023/08/08 14:21:40;;;;;;;10.53;8.67;;;;;;;;;;5011573;28;20527;-41
2023/08/08 14:24:08;;;;;;;7.80;7.00;;;;;;;;;;5011793;28;20460;-41
2023/08/08 14:26:35;;;;;;;9.33;8.47;;;;;;;;;;5014828;28;20981;-41
2023/08/08 14:29:03;;;;;;;7.83;7.10;;;;;;;;;;5015103;28;20974;-45
2023/08/08 14:31:30;;;;;;;10.00;8.03;;;;;;;;;;5015154;28;20425;-41
2023/08/08 14:34:08;;;;;;;15.27;8.00;;;;;;;;;;5015412;28;20421;-43